sensor_id;sensor_type;location;lat;lon;timestamp;P1;durP1;ratioP1;P2;durP2;ratioP2
23123;SDS011;11731;48.592;8.858;2022-11-15T00:03:22;14.03;;;7.87;;
23123;SDS011;11731;48.592;8.858;2022-11-15T00:05:52;11.03;;;7.77;;
23123;SDS011;11731;48.592;8.858;2022-11-15T00:18:42;8.87;;;6.40;;
23123;SDS011;11731;48.592;8.858;2022-11-15T00:21:12;10.77;;;7.70;;
23123;SDS011;11731;48.592;8.858;2022-11-15T00:23:50;10.00;;;6.93;;
23123;SDS011;11731;48.592;8.858;2022-11-15T00:26:27;10.90;;;7.37;;
23123;SDS011;11731;48.592;8.858;2022-11-15T00:42:54;12.20;;;7.87;;
23123;SDS011;11731;48.592;8.858;2022-11-15T00:45:21;9.57;;;7.70;;
23123;SDS011;11731;48.592;8.858;2022-11-15T00:51:20;11.63;;;7.97;;
23123;SDS011;11731;48.592;8.858;2022-11-15T00:53:46;9.53;;;7.60;;
23123;SDS011;11731;48.592;8.858;2022-11-15T00:56:13;9.87;;;7.43;;
23123;SDS011;11731;48.592;8.858;2022-11-15T00:58:42;8.83;;;6.43;;
23123;SDS011;11731;48.592;8.858;2022-11-15T01:01:09;9.60;;;7.13;;
23123;SDS011;11731;48.592;8.858;2022-11-15T01:03:38;10.27;;;6.70;;
23123;SDS011;11731;48.592;8.858;2022-11-15T01:06:42;8.13;;;6.83;;
23123;SDS011;11731;48.592;8.858;2022-11-15T01:09:07;8.73;;;7.07;;
23123;SDS011;11731;48.592;8.858;2022-11-15T01:11:34;10.00;;;7.10;;
23123;SDS011;11731;48.592;8.858;2022-11-15T01:14:38;10.67;;;7.20;;
23123;SDS011;11731;48.592;8.858;2022-11-15T01:17:35;11.77;;;6.80;;
23123;SDS011;11731;48.592;8.858;2022-11-15T01:20:31;8.33;;;6.73;;
23123;SDS011;11731;48.592;8.858;2022-11-15T01:22:58;12.97;;;6.57;;
23123;SDS011;11731;48.592;8.858;2022-11-15T01:25:25;8.43;;;6.47;;
23123;SDS011;11731;48.592;8.858;2022-11-15T01:27:52;8.73;;;6.50;;
23123;SDS011;11731;48.592;8.858;2022-11-15T01:33:38;9.30;;;5.90;;
23123;SDS011;11731;48.592;8.858;2022-11-15T01:36:06;9.67;;;6.23;;
23123;SDS011;11731;48.592;8.858;2022-11-15T01:38:34;8.20;;;5.90;;
23123;SDS011;11731;48.592;8.858;2022-11-15T01:41:01;9.37;;;6.27;;
23123;SDS011;11731;48.592;8.858;2022-11-15T01:43:29;7.63;;;5.63;;
23123;SDS011;11731;48.592;8.858;2022-11-15T01:45:58;7.97;;;6.23;;
23123;SDS011;11731;48.592;8.858;2022-11-15T01:48:32;7.10;;;5.87;;
23123;SDS011;11731;48.592;8.858;2022-11-15T01:51:02;7.20;;;5.83;;
23123;SDS011;11731;48.592;8.858;2022-11-15T01:53:36;7.90;;;5.27;;
23123;SDS011;11731;48.592;8.858;2022-11-15T01:56:07;7.30;;;5.80;;
23123;SDS011;11731;48.592;8.858;2022-11-15T01:58:39;7.23;;;5.60;;
23123;SDS011;11731;48.592;8.858;2022-11-15T02:01:08;7.60;;;5.37;;
23123;SDS011;11731;48.592;8.858;2022-11-15T02:03:38;7.33;;;5.93;;
23123;SDS011;11731;48.592;8.858;2022-11-15T02:06:14;6.00;;;4.70;;
23123;SDS011;11731;48.592;8.858;2022-11-15T02:08:42;10.10;;;5.17;;
23123;SDS011;11731;48.592;8.858;2022-11-15T02:11:10;6.97;;;5.47;;
23123;SDS011;11731;48.592;8.858;2022-11-15T02:13:37;9.17;;;6.73;;
23123;SDS011;11731;48.592;8.858;2022-11-15T02:16:05;7.40;;;6.60;;
23123;SDS011;11731;48.592;8.858;2022-11-15T02:18:40;9.07;;;6.97;;
23123;SDS011;11731;48.592;8.858;2022-11-15T02:21:16;8.07;;;5.60;;
23123;SDS011;11731;48.592;8.858;2022-11-15T02:27:57;7.20;;;5.10;;
23123;SDS011;11731;48.592;8.858;2022-11-15T02:31:08;5.90;;;4.83;;
23123;SDS011;11731;48.592;8.858;2022-11-15T02:33:41;6.50;;;5.07;;
23123;SDS011;11731;48.592;8.858;2022-11-15T02:36:20;7.80;;;5.03;;
23123;SDS011;11731;48.592;8.858;2022-11-15T02:38:58;5.77;;;4.73;;
23123;SDS011;11731;48.592;8.858;2022-11-15T02:41:29;7.00;;;4.97;;
23123;SDS011;11731;48.592;8.858;2022-11-15T02:44:05;6.30;;;5.17;;
23123;SDS011;11731;48.592;8.858;2022-11-15T02:46:38;6.20;;;5.10;;
23123;SDS011;11731;48.592;8.858;2022-11-15T02:50:33;6.33;;;5.07;;
23123;SDS011;11731;48.592;8.858;2022-11-15T02:52:50;6.17;;;4.60;;
23123;SDS011;11731;48.592;8.858;2022-11-15T02:55:44;6.80;;;4.87;;
23123;SDS011;11731;48.592;8.858;2022-11-15T02:58:20;7.30;;;4.70;;
23123;SDS011;11731;48.592;8.858;2022-11-15T03:01:03;6.87;;;4.77;;
23123;SDS011;11731;48.592;8.858;2022-11-15T03:03:41;7.93;;;4.87;;
23123;SDS011;11731;48.592;8.858;2022-11-15T03:06:19;6.83;;;4.80;;
23123;SDS011;11731;48.592;8.858;2022-11-15T03:08:53;7.07;;;4.60;;
23123;SDS011;11731;48.592;8.858;2022-11-15T03:18:06;6.23;;;4.10;;
23123;SDS011;11731;48.592;8.858;2022-11-15T03:20:41;4.70;;;4.10;;
23123;SDS011;11731;48.592;8.858;2022-11-15T03:24:16;5.73;;;4.03;;
23123;SDS011;11731;48.592;8.858;2022-11-15T03:26:29;4.10;;;3.60;;
23123;SDS011;11731;48.592;8.858;2022-11-15T03:28:58;7.37;;;4.60;;
23123;SDS011;11731;48.592;8.858;2022-11-15T03:31:30;6.43;;;4.73;;
23123;SDS011;11731;48.592;8.858;2022-11-15T03:34:14;7.90;;;4.63;;
23123;SDS011;11731;48.592;8.858;2022-11-15T03:36:51;4.67;;;4.00;;
23123;SDS011;11731;48.592;8.858;2022-11-15T03:39:19;7.17;;;4.77;;
23123;SDS011;11731;48.592;8.858;2022-11-15T03:41:49;6.30;;;4.80;;
23123;SDS011;11731;48.592;8.858;2022-11-15T03:47:53;5.47;;;4.33;;
23123;SDS011;11731;48.592;8.858;2022-11-15T03:50:24;6.73;;;4.60;;
23123;SDS011;11731;48.592;8.858;2022-11-15T03:52:52;4.83;;;4.33;;
23123;SDS011;11731;48.592;8.858;2022-11-15T03:55:21;4.83;;;4.17;;
23123;SDS011;11731;48.592;8.858;2022-11-15T03:57:50;7.23;;;4.63;;
23123;SDS011;11731;48.592;8.858;2022-11-15T04:00:19;4.30;;;3.80;;
23123;SDS011;11731;48.592;8.858;2022-11-15T04:02:46;5.83;;;4.70;;
23123;SDS011;11731;48.592;8.858;2022-11-15T04:05:13;5.73;;;4.70;;
23123;SDS011;11731;48.592;8.858;2022-11-15T04:07:40;5.73;;;4.30;;
23123;SDS011;11731;48.592;8.858;2022-11-15T04:10:08;5.07;;;4.40;;
23123;SDS011;11731;48.592;8.858;2022-11-15T04:12:36;8.70;;;4.70;;
23123;SDS011;11731;48.592;8.858;2022-11-15T04:15:08;7.70;;;4.67;;
23123;SDS011;11731;48.592;8.858;2022-11-15T04:17:46;7.03;;;5.03;;
23123;SDS011;11731;48.592;8.858;2022-11-15T04:20:15;6.37;;;5.07;;
23123;SDS011;11731;48.592;8.858;2022-11-15T04:23:03;5.90;;;4.57;;
23123;SDS011;11731;48.592;8.858;2022-11-15T04:25:49;5.77;;;4.60;;
23123;SDS011;11731;48.592;8.858;2022-11-15T04:28:19;6.23;;;4.60;;
23123;SDS011;11731;48.592;8.858;2022-11-15T04:30:47;5.23;;;4.57;;
23123;SDS011;11731;48.592;8.858;2022-11-15T04:33:14;7.17;;;4.73;;
23123;SDS011;11731;48.592;8.858;2022-11-15T04:35:41;6.57;;;4.20;;
23123;SDS011;11731;48.592;8.858;2022-11-15T04:38:29;5.17;;;4.10;;
23123;SDS011;11731;48.592;8.858;2022-11-15T04:40:55;8.33;;;4.80;;
23123;SDS011;11731;48.592;8.858;2022-11-15T04:43:22;4.60;;;3.80;;
23123;SDS011;11731;48.592;8.858;2022-11-15T04:45:50;5.83;;;4.70;;
23123;SDS011;11731;48.592;8.858;2022-11-15T04:48:17;8.37;;;4.97;;
23123;SDS011;11731;48.592;8.858;2022-11-15T04:50:44;9.50;;;4.77;;
23123;SDS011;11731;48.592;8.858;2022-11-15T04:53:14;6.73;;;4.97;;
23123;SDS011;11731;48.592;8.858;2022-11-15T04:55:44;5.00;;;4.27;;
23123;SDS011;11731;48.592;8.858;2022-11-15T04:58:11;6.87;;;5.77;;
23123;SDS011;11731;48.592;8.858;2022-11-15T05:00:38;7.97;;;5.73;;
23123;SDS011;11731;48.592;8.858;2022-11-15T05:03:06;6.97;;;5.20;;
23123;SDS011;11731;48.592;8.858;2022-11-15T05:05:52;6.80;;;5.20;;
23123;SDS011;11731;48.592;8.858;2022-11-15T05:08:19;8.10;;;5.53;;
23123;SDS011;11731;48.592;8.858;2022-11-15T05:10:46;9.50;;;4.67;;
23123;SDS011;11731;48.592;8.858;2022-11-15T05:13:14;9.50;;;7.10;;
23123;SDS011;11731;48.592;8.858;2022-11-15T05:15:54;11.93;;;7.57;;
23123;SDS011;11731;48.592;8.858;2022-11-15T05:18:23;7.87;;;5.90;;
23123;SDS011;11731;48.592;8.858;2022-11-15T05:20:50;9.00;;;6.10;;
23123;SDS011;11731;48.592;8.858;2022-11-15T05:23:17;7.83;;;5.10;;
23123;SDS011;11731;48.592;8.858;2022-11-15T05:25:44;6.00;;;4.70;;
23123;SDS011;11731;48.592;8.858;2022-11-15T05:28:11;6.90;;;5.07;;
23123;SDS011;11731;48.592;8.858;2022-11-15T05:30:38;7.53;;;5.10;;
23123;SDS011;11731;48.592;8.858;2022-11-15T05:33:05;6.70;;;5.07;;
23123;SDS011;11731;48.592;8.858;2022-11-15T05:35:37;6.63;;;4.87;;
23123;SDS011;11731;48.592;8.858;2022-11-15T05:38:07;6.73;;;4.77;;
23123;SDS011;11731;48.592;8.858;2022-11-15T05:40:35;9.30;;;6.83;;
23123;SDS011;11731;48.592;8.858;2022-11-15T05:43:02;6.93;;;6.20;;
23123;SDS011;11731;48.592;8.858;2022-11-15T05:45:31;10.13;;;6.83;;
23123;SDS011;11731;48.592;8.858;2022-11-15T05:47:58;7.20;;;5.80;;
23123;SDS011;11731;48.592;8.858;2022-11-15T05:50:30;8.50;;;6.90;;
23123;SDS011;11731;48.592;8.858;2022-11-15T05:52:59;7.07;;;5.03;;
23123;SDS011;11731;48.592;8.858;2022-11-15T05:55:27;7.20;;;4.57;;
23123;SDS011;11731;48.592;8.858;2022-11-15T05:57:54;7.43;;;4.90;;
23123;SDS011;11731;48.592;8.858;2022-11-15T06:00:21;7.13;;;5.33;;
23123;SDS011;11731;48.592;8.858;2022-11-15T06:02:48;8.83;;;5.50;;
23123;SDS011;11731;48.592;8.858;2022-11-15T06:05:15;7.40;;;4.23;;
23123;SDS011;11731;48.592;8.858;2022-11-15T06:07:42;7.30;;;5.23;;
23123;SDS011;11731;48.592;8.858;2022-11-15T06:10:11;7.77;;;5.20;;
23123;SDS011;11731;48.592;8.858;2022-11-15T06:12:38;8.40;;;5.37;;
23123;SDS011;11731;48.592;8.858;2022-11-15T06:15:05;8.50;;;4.87;;
23123;SDS011;11731;48.592;8.858;2022-11-15T06:17:33;8.77;;;5.70;;
23123;SDS011;11731;48.592;8.858;2022-11-15T06:20:00;7.07;;;6.03;;
23123;SDS011;11731;48.592;8.858;2022-11-15T06:22:27;9.67;;;6.67;;
23123;SDS011;11731;48.592;8.858;2022-11-15T06:24:54;7.30;;;5.60;;
23123;SDS011;11731;48.592;8.858;2022-11-15T06:27:22;8.73;;;6.57;;
23123;SDS011;11731;48.592;8.858;2022-11-15T06:29:49;11.50;;;7.10;;
23123;SDS011;11731;48.592;8.858;2022-11-15T06:32:16;15.20;;;6.83;;
23123;SDS011;11731;48.592;8.858;2022-11-15T06:34:43;9.87;;;6.63;;
23123;SDS011;11731;48.592;8.858;2022-11-15T06:37:09;9.23;;;6.63;;
23123;SDS011;11731;48.592;8.858;2022-11-15T06:39:44;12.20;;;6.93;;
23123;SDS011;11731;48.592;8.858;2022-11-15T06:42:11;10.50;;;6.60;;
23123;SDS011;11731;48.592;8.858;2022-11-15T06:44:39;8.97;;;6.90;;
23123;SDS011;11731;48.592;8.858;2022-11-15T06:47:06;9.53;;;7.13;;
23123;SDS011;11731;48.592;8.858;2022-11-15T06:49:33;8.53;;;6.93;;
23123;SDS011;11731;48.592;8.858;2022-11-15T06:52:00;11.80;;;6.87;;
23123;SDS011;11731;48.592;8.858;2022-11-15T06:54:27;13.13;;;5.97;;
23123;SDS011;11731;48.592;8.858;2022-11-15T06:59:46;7.57;;;5.37;;
23123;SDS011;11731;48.592;8.858;2022-11-15T07:02:13;6.17;;;4.47;;
23123;SDS011;11731;48.592;8.858;2022-11-15T07:04:40;6.47;;;4.80;;
23123;SDS011;11731;48.592;8.858;2022-11-15T07:07:07;12.70;;;5.10;;
23123;SDS011;11731;48.592;8.858;2022-11-15T07:09:34;7.73;;;4.90;;
23123;SDS011;11731;48.592;8.858;2022-11-15T07:12:01;6.90;;;5.37;;
23123;SDS011;11731;48.592;8.858;2022-11-15T07:14:28;12.17;;;5.20;;
23123;SDS011;11731;48.592;8.858;2022-11-15T07:16:56;7.17;;;5.20;;
23123;SDS011;11731;48.592;8.858;2022-11-15T07:19:23;8.33;;;6.37;;
23123;SDS011;11731;48.592;8.858;2022-11-15T07:21:50;7.07;;;5.30;;
23123;SDS011;11731;48.592;8.858;2022-11-15T07:24:17;11.30;;;5.87;;
23123;SDS011;11731;48.592;8.858;2022-11-15T07:26:44;7.40;;;5.37;;
23123;SDS011;11731;48.592;8.858;2022-11-15T07:29:11;7.77;;;6.23;;
23123;SDS011;11731;48.592;8.858;2022-11-15T07:31:38;6.90;;;5.40;;
23123;SDS011;11731;48.592;8.858;2022-11-15T07:34:07;12.40;;;5.27;;
23123;SDS011;11731;48.592;8.858;2022-11-15T07:36:34;7.30;;;4.60;;
23123;SDS011;11731;48.592;8.858;2022-11-15T07:39:05;6.27;;;4.93;;
23123;SDS011;11731;48.592;8.858;2022-11-15T07:41:41;5.80;;;4.93;;
23123;SDS011;11731;48.592;8.858;2022-11-15T07:44:18;10.83;;;6.20;;
23123;SDS011;11731;48.592;8.858;2022-11-15T07:46:44;13.20;;;8.90;;
23123;SDS011;11731;48.592;8.858;2022-11-15T07:49:13;10.83;;;8.07;;
23123;SDS011;11731;48.592;8.858;2022-11-15T07:51:40;12.30;;;6.83;;
23123;SDS011;11731;48.592;8.858;2022-11-15T07:54:07;12.07;;;6.23;;
23123;SDS011;11731;48.592;8.858;2022-11-15T07:56:34;7.67;;;6.20;;
23123;SDS011;11731;48.592;8.858;2022-11-15T07:59:01;13.57;;;5.63;;
23123;SDS011;11731;48.592;8.858;2022-11-15T08:01:28;9.57;;;5.93;;
23123;SDS011;11731;48.592;8.858;2022-11-15T08:03:56;10.80;;;6.27;;
23123;SDS011;11731;48.592;8.858;2022-11-15T08:06:25;7.90;;;6.37;;
23123;SDS011;11731;48.592;8.858;2022-11-15T08:08:52;6.93;;;5.20;;
23123;SDS011;11731;48.592;8.858;2022-11-15T08:11:19;7.27;;;5.60;;
23123;SDS011;11731;48.592;8.858;2022-11-15T08:13:46;8.20;;;5.80;;
23123;SDS011;11731;48.592;8.858;2022-11-15T08:16:12;8.63;;;5.47;;
23123;SDS011;11731;48.592;8.858;2022-11-15T08:18:39;8.87;;;5.40;;
23123;SDS011;11731;48.592;8.858;2022-11-15T08:21:08;9.03;;;5.50;;
23123;SDS011;11731;48.592;8.858;2022-11-15T08:23:37;8.23;;;5.30;;
23123;SDS011;11731;48.592;8.858;2022-11-15T08:26:04;9.83;;;6.00;;
23123;SDS011;11731;48.592;8.858;2022-11-15T08:28:32;11.23;;;6.00;;
23123;SDS011;11731;48.592;8.858;2022-11-15T08:30:59;7.30;;;5.13;;
23123;SDS011;11731;48.592;8.858;2022-11-15T08:33:26;8.03;;;5.20;;
23123;SDS011;11731;48.592;8.858;2022-11-15T08:35:55;6.77;;;4.97;;
23123;SDS011;11731;48.592;8.858;2022-11-15T08:38:23;9.00;;;5.43;;
23123;SDS011;11731;48.592;8.858;2022-11-15T08:40:52;10.30;;;5.67;;
23123;SDS011;11731;48.592;8.858;2022-11-15T08:43:25;17.53;;;6.30;;
23123;SDS011;11731;48.592;8.858;2022-11-15T08:45:51;8.33;;;5.97;;
23123;SDS011;11731;48.592;8.858;2022-11-15T08:48:22;9.17;;;5.57;;
23123;SDS011;11731;48.592;8.858;2022-11-15T08:50:49;10.93;;;6.27;;
23123;SDS011;11731;48.592;8.858;2022-11-15T08:53:20;11.00;;;6.70;;
23123;SDS011;11731;48.592;8.858;2022-11-15T08:55:47;9.83;;;5.80;;
23123;SDS011;11731;48.592;8.858;2022-11-15T08:58:15;7.83;;;5.07;;
23123;SDS011;11731;48.592;8.858;2022-11-15T09:00:42;6.27;;;4.60;;
23123;SDS011;11731;48.592;8.858;2022-11-15T09:03:09;9.40;;;5.00;;
23123;SDS011;11731;48.592;8.858;2022-11-15T09:05:36;10.67;;;5.00;;
23123;SDS011;11731;48.592;8.858;2022-11-15T09:08:03;6.33;;;4.90;;
23123;SDS011;11731;48.592;8.858;2022-11-15T09:10:31;6.07;;;4.53;;
23123;SDS011;11731;48.592;8.858;2022-11-15T09:13:08;6.67;;;4.80;;
23123;SDS011;11731;48.592;8.858;2022-11-15T09:15:45;4.93;;;4.00;;
23123;SDS011;11731;48.592;8.858;2022-11-15T09:18:12;6.80;;;5.00;;
23123;SDS011;11731;48.592;8.858;2022-11-15T09:20:39;7.60;;;4.50;;
23123;SDS011;11731;48.592;8.858;2022-11-15T09:23:06;6.97;;;5.40;;
23123;SDS011;11731;48.592;8.858;2022-11-15T09:25:33;7.83;;;5.30;;
23123;SDS011;11731;48.592;8.858;2022-11-15T09:27:59;6.90;;;4.63;;
23123;SDS011;11731;48.592;8.858;2022-11-15T09:30:26;4.17;;;3.77;;
23123;SDS011;11731;48.592;8.858;2022-11-15T09:32:55;5.40;;;4.43;;
23123;SDS011;11731;48.592;8.858;2022-11-15T09:35:22;6.87;;;4.37;;
23123;SDS011;11731;48.592;8.858;2022-11-15T09:37:52;7.57;;;4.20;;
23123;SDS011;11731;48.592;8.858;2022-11-15T09:40:43;5.23;;;4.00;;
23123;SDS011;11731;48.592;8.858;2022-11-15T09:43:22;6.47;;;4.60;;
23123;SDS011;11731;48.592;8.858;2022-11-15T09:45:57;6.50;;;3.87;;
23123;SDS011;11731;48.592;8.858;2022-11-15T09:48:43;6.10;;;3.70;;
23123;SDS011;11731;48.592;8.858;2022-11-15T09:51:27;5.87;;;4.33;;
23123;SDS011;11731;48.592;8.858;2022-11-15T09:54:04;6.47;;;4.30;;
23123;SDS011;11731;48.592;8.858;2022-11-15T09:56:43;7.07;;;4.77;;
23123;SDS011;11731;48.592;8.858;2022-11-15T09:59:25;9.27;;;6.33;;
23123;SDS011;11731;48.592;8.858;2022-11-15T10:02:26;9.93;;;6.67;;
23123;SDS011;11731;48.592;8.858;2022-11-15T10:05:20;8.17;;;6.20;;
23123;SDS011;11731;48.592;8.858;2022-11-15T10:07:50;6.97;;;5.20;;
23123;SDS011;11731;48.592;8.858;2022-11-15T10:13:32;4.40;;;3.70;;
23123;SDS011;11731;48.592;8.858;2022-11-15T10:16:02;5.83;;;4.00;;
23123;SDS011;11731;48.592;8.858;2022-11-15T10:18:35;4.53;;;3.90;;
23123;SDS011;11731;48.592;8.858;2022-11-15T10:33:31;4.67;;;3.37;;
23123;SDS011;11731;48.592;8.858;2022-11-15T10:36:18;5.80;;;3.83;;
23123;SDS011;11731;48.592;8.858;2022-11-15T10:38:52;6.10;;;3.47;;
23123;SDS011;11731;48.592;8.858;2022-11-15T10:41:49;4.23;;;3.83;;
23123;SDS011;11731;48.592;8.858;2022-11-15T10:44:20;5.43;;;3.73;;
23123;SDS011;11731;48.592;8.858;2022-11-15T10:50:27;4.93;;;3.17;;
23123;SDS011;11731;48.592;8.858;2022-11-15T10:53:10;8.53;;;3.90;;
23123;SDS011;11731;48.592;8.858;2022-11-15T10:55:46;5.27;;;3.50;;
23123;SDS011;11731;48.592;8.858;2022-11-15T10:58:19;4.30;;;3.40;;
23123;SDS011;11731;48.592;8.858;2022-11-15T11:00:53;5.10;;;3.80;;
23123;SDS011;11731;48.592;8.858;2022-11-15T11:03:24;7.13;;;3.87;;
23123;SDS011;11731;48.592;8.858;2022-11-15T11:06:04;4.83;;;3.47;;
23123;SDS011;11731;48.592;8.858;2022-11-15T11:08:36;4.73;;;3.80;;
23123;SDS011;11731;48.592;8.858;2022-11-15T11:11:03;5.17;;;4.03;;
23123;SDS011;11731;48.592;8.858;2022-11-15T11:13:32;5.60;;;3.57;;
23123;SDS011;11731;48.592;8.858;2022-11-15T11:16:18;4.93;;;4.20;;
23123;SDS011;11731;48.592;8.858;2022-11-15T11:19:08;5.97;;;3.83;;
23123;SDS011;11731;48.592;8.858;2022-11-15T11:22:17;5.27;;;3.90;;
23123;SDS011;11731;48.592;8.858;2022-11-15T11:25:22;5.53;;;4.00;;
23123;SDS011;11731;48.592;8.858;2022-11-15T11:30:43;6.50;;;3.90;;
23123;SDS011;11731;48.592;8.858;2022-11-15T11:33:18;6.20;;;3.97;;
23123;SDS011;11731;48.592;8.858;2022-11-15T11:36:21;6.93;;;4.37;;
23123;SDS011;11731;48.592;8.858;2022-11-15T11:39:20;4.03;;;3.63;;
23123;SDS011;11731;48.592;8.858;2022-11-15T11:42:13;4.70;;;3.73;;
23123;SDS011;11731;48.592;8.858;2022-11-15T11:45:19;4.57;;;3.87;;
23123;SDS011;11731;48.592;8.858;2022-11-15T11:47:43;6.27;;;4.23;;
23123;SDS011;11731;48.592;8.858;2022-11-15T11:50:15;7.57;;;4.13;;
23123;SDS011;11731;48.592;8.858;2022-11-15T11:54:40;5.97;;;4.00;;
23123;SDS011;11731;48.592;8.858;2022-11-15T11:59:28;6.53;;;3.93;;
23123;SDS011;11731;48.592;8.858;2022-11-15T12:02:02;5.30;;;4.20;;
23123;SDS011;11731;48.592;8.858;2022-11-15T12:04:43;4.97;;;4.00;;
23123;SDS011;11731;48.592;8.858;2022-11-15T12:07:15;5.67;;;4.07;;
23123;SDS011;11731;48.592;8.858;2022-11-15T12:09:48;4.73;;;4.20;;
23123;SDS011;11731;48.592;8.858;2022-11-15T12:12:27;5.43;;;3.80;;
23123;SDS011;11731;48.592;8.858;2022-11-15T12:15:02;6.33;;;3.90;;
23123;SDS011;11731;48.592;8.858;2022-11-15T12:17:42;4.90;;;3.47;;
23123;SDS011;11731;48.592;8.858;2022-11-15T12:20:14;6.47;;;3.60;;
23123;SDS011;11731;48.592;8.858;2022-11-15T12:22:44;7.77;;;3.80;;
23123;SDS011;11731;48.592;8.858;2022-11-15T12:25:45;7.77;;;3.93;;
23123;SDS011;11731;48.592;8.858;2022-11-15T12:28:29;5.57;;;3.90;;
23123;SDS011;11731;48.592;8.858;2022-11-15T12:34:35;5.43;;;3.70;;
23123;SDS011;11731;48.592;8.858;2022-11-15T12:37:46;5.13;;;4.10;;
23123;SDS011;11731;48.592;8.858;2022-11-15T12:43:33;5.60;;;3.53;;
23123;SDS011;11731;48.592;8.858;2022-11-15T12:52:19;4.07;;;3.10;;
23123;SDS011;11731;48.592;8.858;2022-11-15T12:54:59;3.90;;;3.47;;
23123;SDS011;11731;48.592;8.858;2022-11-15T12:57:41;4.40;;;3.30;;
23123;SDS011;11731;48.592;8.858;2022-11-15T13:03:16;4.87;;;4.13;;
23123;SDS011;11731;48.592;8.858;2022-11-15T13:06:05;4.93;;;4.27;;
23123;SDS011;11731;48.592;8.858;2022-11-15T13:08:46;6.00;;;4.27;;
23123;SDS011;11731;48.592;8.858;2022-11-15T13:11:44;7.40;;;4.00;;
23123;SDS011;11731;48.592;8.858;2022-11-15T13:17:16;6.87;;;4.10;;
23123;SDS011;11731;48.592;8.858;2022-11-15T13:19:58;4.83;;;3.33;;
23123;SDS011;11731;48.592;8.858;2022-11-15T13:22:48;5.40;;;3.60;;
23123;SDS011;11731;48.592;8.858;2022-11-15T13:28:32;7.70;;;3.97;;
23123;SDS011;11731;48.592;8.858;2022-11-15T13:31:03;6.13;;;;;
23123;SDS011;11731;48.592;8.858;2022-11-15T13:33:49;8.30;;;4.03;;
23123;SDS011;11731;48.592;8.858;2022-11-15T13:36:20;4.97;;;4.00;;
23123;SDS011;11731;48.592;8.858;2022-11-15T13:38:54;5.47;;;4.10;;
23123;SDS011;11731;48.592;8.858;2022-11-15T13:41:23;4.67;;;3.97;;
23123;SDS011;11731;48.592;8.858;2022-11-15T13:43:51;5.80;;;4.50;;
23123;SDS011;11731;48.592;8.858;2022-11-15T13:46:20;7.43;;;5.77;;
23123;SDS011;11731;48.592;8.858;2022-11-15T13:48:51;8.23;;;4.87;;
23123;SDS011;11731;48.592;8.858;2022-11-15T13:51:39;7.03;;;4.70;;
23123;SDS011;11731;48.592;8.858;2022-11-15T13:54:13;7.23;;;4.70;;
23123;SDS011;11731;48.592;8.858;2022-11-15T13:56:45;5.83;;;4.70;;
23123;SDS011;11731;48.592;8.858;2022-11-15T13:59:15;6.10;;;4.67;;
23123;SDS011;11731;48.592;8.858;2022-11-15T14:01:47;8.83;;;4.63;;
23123;SDS011;11731;48.592;8.858;2022-11-15T14:04:36;9.23;;;5.37;;
23123;SDS011;11731;48.592;8.858;2022-11-15T14:07:27;5.80;;;4.77;;
23123;SDS011;11731;48.592;8.858;2022-11-15T14:09:55;6.23;;;4.77;;
23123;SDS011;11731;48.592;8.858;2022-11-15T14:12:27;6.00;;;4.53;;
23123;SDS011;11731;48.592;8.858;2022-11-15T14:14:57;6.67;;;5.17;;
23123;SDS011;11731;48.592;8.858;2022-11-15T14:17:35;6.37;;;5.50;;
23123;SDS011;11731;48.592;8.858;2022-11-15T14:22:33;6.67;;;5.60;;
23123;SDS011;11731;48.592;8.858;2022-11-15T14:24:21;8.00;;;5.63;;
23123;SDS011;11731;48.592;8.858;2022-11-15T14:26:51;6.83;;;5.00;;
23123;SDS011;11731;48.592;8.858;2022-11-15T14:30:24;7.40;;;5.23;;
23123;SDS011;11731;48.592;8.858;2022-11-15T14:32:50;7.80;;;5.57;;
23123;SDS011;11731;48.592;8.858;2022-11-15T14:35:17;8.03;;;5.30;;
23123;SDS011;11731;48.592;8.858;2022-11-15T14:37:46;7.33;;;5.07;;
23123;SDS011;11731;48.592;8.858;2022-11-15T14:40:16;5.90;;;5.30;;
23123;SDS011;11731;48.592;8.858;2022-11-15T14:42:44;7.13;;;5.13;;
23123;SDS011;11731;48.592;8.858;2022-11-15T14:45:12;8.13;;;5.00;;
23123;SDS011;11731;48.592;8.858;2022-11-15T14:47:45;7.37;;;5.20;;
23123;SDS011;11731;48.592;8.858;2022-11-15T14:50:12;11.40;;;6.20;;
23123;SDS011;11731;48.592;8.858;2022-11-15T14:52:39;14.03;;;7.60;;
23123;SDS011;11731;48.592;8.858;2022-11-15T14:55:12;16.40;;;8.80;;
23123;SDS011;11731;48.592;8.858;2022-11-15T14:57:44;17.50;;;9.77;;
23123;SDS011;11731;48.592;8.858;2022-11-15T15:00:12;12.30;;;7.20;;
23123;SDS011;11731;48.592;8.858;2022-11-15T15:02:39;9.40;;;6.00;;
23123;SDS011;11731;48.592;8.858;2022-11-15T15:05:15;8.20;;;5.87;;
23123;SDS011;11731;48.592;8.858;2022-11-15T15:07:43;11.13;;;6.50;;
23123;SDS011;11731;48.592;8.858;2022-11-15T15:10:11;9.33;;;6.27;;
23123;SDS011;11731;48.592;8.858;2022-11-15T15:12:40;12.97;;;6.80;;
23123;SDS011;11731;48.592;8.858;2022-11-15T15:15:41;10.13;;;5.77;;
23123;SDS011;11731;48.592;8.858;2022-11-15T15:18:08;5.97;;;4.93;;
23123;SDS011;11731;48.592;8.858;2022-11-15T15:20:38;6.27;;;4.90;;
23123;SDS011;11731;48.592;8.858;2022-11-15T15:23:08;6.73;;;4.50;;
23123;SDS011;11731;48.592;8.858;2022-11-15T15:25:41;7.73;;;4.50;;
23123;SDS011;11731;48.592;8.858;2022-11-15T15:28:11;6.07;;;4.53;;
23123;SDS011;11731;48.592;8.858;2022-11-15T15:30:38;6.50;;;4.33;;
23123;SDS011;11731;48.592;8.858;2022-11-15T15:33:06;7.40;;;4.80;;
23123;SDS011;11731;48.592;8.858;2022-11-15T15:35:34;5.90;;;4.27;;
23123;SDS011;11731;48.592;8.858;2022-11-15T15:38:01;7.30;;;4.80;;
23123;SDS011;11731;48.592;8.858;2022-11-15T15:40:29;6.27;;;4.73;;
23123;SDS011;11731;48.592;8.858;2022-11-15T15:42:58;7.77;;;5.00;;
23123;SDS011;11731;48.592;8.858;2022-11-15T15:45:26;5.70;;;4.50;;
23123;SDS011;11731;48.592;8.858;2022-11-15T15:47:54;6.47;;;5.10;;
23123;SDS011;11731;48.592;8.858;2022-11-15T15:50:22;6.00;;;4.83;;
23123;SDS011;11731;48.592;8.858;2022-11-15T15:52:51;7.73;;;4.83;;
23123;SDS011;11731;48.592;8.858;2022-11-15T15:55:20;7.80;;;4.97;;
23123;SDS011;11731;48.592;8.858;2022-11-15T15:57:47;13.13;;;4.90;;
23123;SDS011;11731;48.592;8.858;2022-11-15T16:00:15;5.33;;;4.50;;
23123;SDS011;11731;48.592;8.858;2022-11-15T16:02:44;7.83;;;4.90;;
23123;SDS011;11731;48.592;8.858;2022-11-15T16:05:12;7.33;;;5.33;;
23123;SDS011;11731;48.592;8.858;2022-11-15T16:07:39;8.87;;;5.37;;
23123;SDS011;11731;48.592;8.858;2022-11-15T16:10:16;7.33;;;5.27;;
23123;SDS011;11731;48.592;8.858;2022-11-15T16:12:45;11.30;;;6.63;;
23123;SDS011;11731;48.592;8.858;2022-11-15T16:15:12;11.23;;;6.63;;
23123;SDS011;11731;48.592;8.858;2022-11-15T16:17:40;8.37;;;5.70;;
23123;SDS011;11731;48.592;8.858;2022-11-15T16:20:15;11.43;;;7.43;;
23123;SDS011;11731;48.592;8.858;2022-11-15T16:23:00;8.47;;;6.33;;
23123;SDS011;11731;48.592;8.858;2022-11-15T16:25:28;9.97;;;7.30;;
23123;SDS011;11731;48.592;8.858;2022-11-15T16:27:56;10.27;;;7.53;;
23123;SDS011;11731;48.592;8.858;2022-11-15T16:30:23;9.07;;;7.07;;
23123;SDS011;11731;48.592;8.858;2022-11-15T16:32:50;10.70;;;6.57;;
23123;SDS011;11731;48.592;8.858;2022-11-15T16:35:20;10.90;;;6.50;;
23123;SDS011;11731;48.592;8.858;2022-11-15T16:37:47;8.63;;;5.80;;
23123;SDS011;11731;48.592;8.858;2022-11-15T16:40:17;11.40;;;6.10;;
23123;SDS011;11731;48.592;8.858;2022-11-15T16:42:55;8.57;;;5.60;;
23123;SDS011;11731;48.592;8.858;2022-11-15T16:45:22;8.27;;;5.80;;
23123;SDS011;11731;48.592;8.858;2022-11-15T16:47:49;8.13;;;5.30;;
23123;SDS011;11731;48.592;8.858;2022-11-15T16:50:23;8.20;;;5.77;;
23123;SDS011;11731;48.592;8.858;2022-11-15T16:52:52;9.00;;;7.00;;
23123;SDS011;11731;48.592;8.858;2022-11-15T16:55:20;11.77;;;7.20;;
23123;SDS011;11731;48.592;8.858;2022-11-15T16:57:48;9.63;;;7.17;;
23123;SDS011;11731;48.592;8.858;2022-11-15T17:00:16;14.93;;;7.93;;